Time;durP1;ratioP1;P1;durP2;ratioP2;P2;SDS_P1;SDS_P2;PMS_P1;PMS_P2;Temp;Humidity;BMP_temperature;BMP_pressure;BME280_temperature;BME280_humidity;BME280_pressure;Samples;Min_cycle;Max_cycle;Signal;HPM_P1;HPM_P2
2022/10/05 00:01:16;;;;;;;;;;;17.60;99.90;;;;;;5065720;28;19912;-69
2022/10/05 00:03:43;;;;;;;;;;;17.60;99.90;;;;;;5063881;28;20416;-71
2022/10/05 00:06:12;;;;;;;;;;;17.60;99.90;;;;;;5062952;28;19990;-69
2022/10/05 00:08:38;;;;;;;;;;;17.60;99.90;;;;;;5066501;28;20411;-69
2022/10/05 00:11:08;;;;;;;;;;;17.70;99.90;;;;;;5063213;28;20019;-70
2022/10/05 00:13:35;;;;;;;;;;;17.70;99.90;;;;;;5063617;28;19916;-69
2022/10/05 00:16:27;;;;;;;;;;;17.70;99.90;;;;;;5059781;28;20651;-71
2022/10/05 00:18:54;;;;;;;;;;;17.60;99.90;;;;;;5057813;28;20571;-69
2022/10/05 00:21:22;;;;;;;;;;;17.60;99.90;;;;;;5063192;28;19926;-70
2022/10/05 00:23:49;;;;;;;;;;;17.60;99.90;;;;;;5061621;28;19908;-71
2022/10/05 00:26:16;;;;;;;;;;;17.50;99.90;;;;;;5060384;28;19917;-70
2022/10/05 00:28:42;;;;;;;;;;;17.40;99.90;;;;;;5062945;28;19929;-68
2022/10/05 00:31:17;;;;;;;;;;;17.30;99.90;;;;;;5047647;28;19917;-72
2022/10/05 00:33:43;;;;;;;;;;;17.30;99.90;;;;;;5066175;28;19912;-71
2022/10/05 00:36:10;;;;;;;;;;;17.20;99.90;;;;;;5072737;28;19958;-73
2022/10/05 00:38:37;;;;;;;;;;;17.20;99.90;;;;;;5072345;28;19914;-73
2022/10/05 00:41:06;;;;;;;;;;;17.10;99.90;;;;;;5054664;28;19921;-74
2022/10/05 00:43:51;;;;;;;;;;;17.10;99.90;;;;;;5072521;28;20004;-72
2022/10/05 00:46:22;;;;;;;;;;;16.90;99.90;;;;;;5072777;28;19909;-71
2022/10/05 00:48:49;;;;;;;;;;;16.90;99.90;;;;;;5071412;28;19966;-71
2022/10/05 00:51:25;;;;;;;;;;;16.70;99.90;;;;;;5054319;28;19943;-71
2022/10/05 00:53:58;;;;;;;;;;;16.60;99.90;;;;;;5069691;28;19912;-71
2022/10/05 00:56:36;;;;;;;;;;;16.60;99.90;;;;;;5073181;28;19934;-73
2022/10/05 00:59:28;;;;;;;;;;;16.40;99.90;;;;;;5070910;28;19917;-72
2022/10/05 01:02:01;;;;;;;;;;;16.40;99.90;;;;;;5030613;28;20273;-70
2022/10/05 01:04:48;;;;;;;;;;;16.20;99.90;;;;;;5071516;28;19916;-71
2022/10/05 01:07:24;;;;;;;;;;;16.20;99.90;;;;;;5052770;28;19932;-70
2022/10/05 01:10:26;;;;;;;;;;;16.30;99.90;;;;;;5072839;28;19909;-70
2022/10/05 01:13:03;;;;;;;;;;;16.30;99.90;;;;;;5029858;28;19919;-69
2022/10/05 01:15:39;;;;;;;;;;;16.30;99.90;;;;;;5067045;28;19928;-73
2022/10/05 01:18:12;;;;;;;;;;;16.40;99.90;;;;;;5072020;28;19921;-71
2022/10/05 01:20:43;;;;;;;;;;;16.40;99.90;;;;;;5072080;28;19912;-70
2022/10/05 01:23:19;;;;;;;;;;;16.50;99.90;;;;;;5072353;28;19916;-72
2022/10/05 01:25:45;;;;;;;;;;;16.50;99.90;;;;;;5071893;28;19923;-72
2022/10/05 01:28:15;;;;;;;;;;;16.30;99.90;;;;;;5072218;28;20351;-69
2022/10/05 01:31:02;;;;;;;;;;;16.30;99.90;;;;;;5072156;28;19915;-70
2022/10/05 01:34:04;;;;;;;;;;;16.30;99.90;;;;;;5054762;28;19916;-69
2022/10/05 01:36:44;;;;;;;;;;;16.20;99.90;;;;;;4970488;28;19910;-69
2022/10/05 01:39:16;;;;;;;;;;;16.20;99.90;;;;;;5061181;28;19909;-71
2022/10/05 01:41:48;;;;;;;;;;;16.20;99.90;;;;;;5072204;28;19958;-71
2022/10/05 01:44:15;;;;;;;;;;;16.00;99.90;;;;;;5069845;28;19916;-70
2022/10/05 01:46:45;;;;;;;;;;;15.70;99.90;;;;;;5070441;28;19935;-70
2022/10/05 01:49:15;;;;;;;;;;;15.50;99.90;;;;;;5052684;28;20011;-71
2022/10/05 01:52:02;;;;;;;;;;;15.40;99.90;;;;;;5071716;28;19908;-73
2022/10/05 01:54:53;;;;;;;;;;;15.40;99.90;;;;;;5048901;28;20348;-69
2022/10/05 01:57:40;;;;;;;;;;;15.30;99.90;;;;;;5066499;28;19916;-74
2022/10/05 02:00:08;;;;;;;;;;;15.20;99.90;;;;;;5053879;28;20406;-71
2022/10/05 02:02:41;;;;;;;;;;;15.30;99.90;;;;;;5070828;28;19995;-74
2022/10/05 02:05:17;;;;;;;;;;;15.30;99.90;;;;;;5064869;28;19962;-74
2022/10/05 02:08:10;;;;;;;;;;;15.30;99.90;;;;;;5052127;28;19927;-70
2022/10/05 02:10:49;;;;;;;;;;;15.20;99.90;;;;;;5065103;28;20502;-71
2022/10/05 02:13:22;;;;;;;;;;;15.20;99.90;;;;;;5070006;28;21382;-71
2022/10/05 02:15:53;;;;;;;;;;;15.30;99.90;;;;;;5063416;28;19916;-72
2022/10/05 02:18:22;;;;;;;;;;;15.40;99.90;;;;;;5071602;28;20534;-74
2022/10/05 02:20:51;;;;;;;;;;;15.50;99.90;;;;;;5068875;28;19908;-73
2022/10/05 02:23:20;;;;;;;;;;;15.60;99.90;;;;;;5070603;28;20357;-71
2022/10/05 02:25:48;;;;;;;;;;;15.70;99.90;;;;;;5068578;28;20358;-71
2022/10/05 02:28:35;;;;;;;;;;;15.80;99.90;;;;;;5070436;28;20416;-69
2022/10/05 02:31:09;;;;;;;;;;;15.90;99.90;;;;;;5059629;28;19920;-72
2022/10/05 02:33:36;;;;;;;;;;;16.00;99.90;;;;;;5043976;28;19916;-68
2022/10/05 02:36:15;;;;;;;;;;;16.00;99.90;;;;;;5069202;28;19919;-70
2022/10/05 02:38:47;;;;;;;;;;;16.10;99.90;;;;;;5069892;28;20008;-70
2022/10/05 02:41:23;;;;;;;;;;;16.10;99.90;;;;;;5070422;28;20009;-67
2022/10/05 02:43:50;;;;;;;;;;;16.30;99.90;;;;;;5070886;28;19920;-74
2022/10/05 02:46:17;;;;;;;;;;;16.30;99.90;;;;;;5052047;28;20011;-72
2022/10/05 02:48:59;;;;;;;;;;;16.30;99.90;;;;;;5070295;28;19924;-74
2022/10/05 02:51:28;;;;;;;;;;;16.30;99.90;;;;;;5071181;28;20007;-70
2022/10/05 02:54:13;;;;;;;;;;;16.40;99.90;;;;;;5070214;28;20249;-70
2022/10/05 02:56:43;;;;;;;;;;;16.40;99.90;;;;;;5071635;28;19912;-70
2022/10/05 02:59:41;;;;;;;;;;;16.40;99.90;;;;;;5071029;28;19913;-70
2022/10/05 03:02:21;;;;;;;;;;;16.30;99.90;;;;;;5039682;28;19912;-72
2022/10/05 03:04:57;;;;;;;;;;;16.30;99.90;;;;;;5053085;28;20015;-73
2022/10/05 03:07:27;;;;;;;;;;;16.30;99.90;;;;;;5050749;28;20395;-71
2022/10/05 03:10:01;;;;;;;;;;;16.40;99.90;;;;;;5054890;28;20344;-71
2022/10/05 03:12:54;;;;;;;;;;;16.40;99.90;;;;;;5070659;28;19908;-71
2022/10/05 03:15:21;;;;;;;;;;;16.40;99.90;;;;;;5068153;28;19959;-70
2022/10/05 03:18:01;;;;;;;;;;;16.50;99.90;;;;;;5069645;28;20013;-71
2022/10/05 03:20:39;;;;;;;;;;;16.50;99.90;;;;;;5071171;28;19913;-71
2022/10/05 03:23:11;;;;;;;;;;;16.40;99.90;;;;;;5066403;28;19979;-69
2022/10/05 03:25:40;;;;;;;;;;;16.40;99.90;;;;;;5061179;28;19915;-70
2022/10/05 03:28:07;;;;;;;;;;;16.40;99.90;;;;;;5070473;28;20015;-69
2022/10/05 03:30:48;;;;;;;;;;;16.40;99.90;;;;;;5070963;28;19908;-72
2022/10/05 03:33:33;;;;;;;;;;;16.40;99.90;;;;;;5070654;28;19913;-73
2022/10/05 03:36:17;;;;;;;;;;;16.50;99.90;;;;;;5070891;28;19913;-71
2022/10/05 03:38:53;;;;;;;;;;;16.60;99.90;;;;;;5070219;28;19916;-70
2022/10/05 03:41:35;;;;;;;;;;;16.50;99.90;;;;;;5070308;28;19908;-72
2022/10/05 03:44:07;;;;;;;;;;;16.60;99.90;;;;;;5070507;28;20283;-73
2022/10/05 03:46:49;;;;;;;;;;;16.60;99.90;;;;;;5070339;28;19909;-71
2022/10/05 03:49:36;;;;;;;;;;;16.70;99.90;;;;;;5069972;28;19921;-71
2022/10/05 03:52:15;;;;;;;;;;;16.70;99.90;;;;;;5069106;28;19908;-70
2022/10/05 03:54:44;;;;;;;;;;;16.50;99.90;;;;;;5050661;28;19966;-71
2022/10/05 03:57:17;;;;;;;;;;;16.40;99.90;;;;;;5070129;28;20390;-70
2022/10/05 03:59:49;;;;;;;;;;;16.30;99.90;;;;;;5071066;28;20364;-70
2022/10/05 04:02:20;;;;;;;;;;;16.30;99.90;;;;;;5070660;28;20003;-69
2022/10/05 04:04:54;;;;;;;;;;;16.40;99.90;;;;;;5062425;28;19917;-71
2022/10/05 04:07:27;;;;;;;;;;;16.40;99.90;;;;;;5050486;28;20379;-71
2022/10/05 04:09:55;;;;;;;;;;;16.30;99.90;;;;;;5050184;28;19917;-70
2022/10/05 04:12:26;;;;;;;;;;;16.40;99.90;;;;;;5065047;28;20426;-71
2022/10/05 04:15:01;;;;;;;;;;;16.30;99.90;;;;;;5043709;28;19912;-71
2022/10/05 04:17:54;;;;;;;;;;;16.20;99.90;;;;;;5069750;28;19928;-69
2022/10/05 04:20:26;;;;;;;;;;;16.10;99.90;;;;;;5064398;28;19935;-69
2022/10/05 04:23:07;;;;;;;;;;;16.10;99.90;;;;;;5069074;28;19912;-71
2022/10/05 04:25:48;;;;;;;;;;;16.10;99.90;;;;;;5070755;28;19973;-71
2022/10/05 04:28:27;;;;;;;;;;;16.00;99.90;;;;;;5068191;28;19924;-72
2022/10/05 04:30:53;;;;;;;;;;;15.90;99.90;;;;;;5070595;28;19928;-72
2022/10/05 04:33:20;;;;;;;;;;;15.80;99.90;;;;;;5072350;28;19916;-72
2022/10/05 04:35:50;;;;;;;;;;;15.60;99.90;;;;;;5072518;28;19912;-73
2022/10/05 04:38:41;;;;;;;;;;;15.60;99.90;;;;;;5073757;28;20015;-71
2022/10/05 04:41:15;;;;;;;;;;;15.60;99.90;;;;;;5072729;28;20035;-73
2022/10/05 04:43:48;;;;;;;;;;;15.60;99.90;;;;;;5073359;28;19916;-73
2022/10/05 04:46:21;;;;;;;;;;;15.60;99.90;;;;;;5072010;28;19909;-71
2022/10/05 04:48:55;;;;;;;;;;;15.70;99.90;;;;;;5062942;28;19920;-71
2022/10/05 04:52:00;;;;;;;;;;;15.70;99.90;;;;;;5072566;28;20339;-71
2022/10/05 04:55:02;;;;;;;;;;;15.80;99.90;;;;;;5030167;28;19913;-69
2022/10/05 04:57:49;;;;;;;;;;;15.70;99.90;;;;;;4990931;28;19917;-72
2022/10/05 05:00:21;;;;;;;;;;;15.70;99.90;;;;;;5056571;28;19964;-72
2022/10/05 05:02:48;;;;;;;;;;;15.70;99.90;;;;;;5059464;28;19913;-69
2022/10/05 05:05:21;;;;;;;;;;;15.60;99.90;;;;;;5072488;28;19912;-71
2022/10/05 05:07:55;;;;;;;;;;;15.60;99.90;;;;;;5053958;28;19917;-70
2022/10/05 05:10:27;;;;;;;;;;;15.60;99.90;;;;;;5071675;28;20387;-74
2022/10/05 05:12:57;;;;;;;;;;;15.40;99.90;;;;;;5072991;28;19913;-70
2022/10/05 05:15:26;;;;;;;;;;;15.40;99.90;;;;;;5072628;28;19935;-71
2022/10/05 05:17:53;;;;;;;;;;;15.40;99.90;;;;;;5071534;28;19931;-70
2022/10/05 05:20:38;;;;;;;;;;;15.30;99.90;;;;;;5071557;28;20020;-71
2022/10/05 05:23:27;;;;;;;;;;;15.30;99.90;;;;;;5065920;28;19924;-73
2022/10/05 05:26:16;;;;;;;;;;;15.30;99.90;;;;;;5071712;28;20341;-73
2022/10/05 05:28:45;;;;;;;;;;;15.40;99.90;;;;;;5071739;28;19925;-70
2022/10/05 05:31:24;;;;;;;;;;;15.40;99.90;;;;;;5072007;28;20364;-70
2022/10/05 05:34:02;;;;;;;;;;;15.40;99.90;;;;;;5072294;28;20003;-71
2022/10/05 05:36:35;;;;;;;;;;;15.40;99.90;;;;;;5053385;28;19916;-73
2022/10/05 05:39:24;;;;;;;;;;;15.50;99.90;;;;;;5072184;28;19919;-70
2022/10/05 05:42:09;;;;;;;;;;;15.40;99.90;;;;;;5066434;28;19917;-72
2022/10/05 05:44:47;;;;;;;;;;;15.50;99.90;;;;;;5073083;28;19947;-71
2022/10/05 05:47:13;;;;;;;;;;;15.50;99.90;;;;;;5071166;28;19920;-75
2022/10/05 05:49:49;;;;;;;;;;;15.40;99.90;;;;;;5062230;28;19924;-69
2022/10/05 05:52:27;;;;;;;;;;;15.50;99.90;;;;;;5070203;28;19953;-73
2022/10/05 05:54:58;;;;;;;;;;;15.40;99.90;;;;;;5054021;28;19909;-72
2022/10/05 05:57:24;;;;;;;;;;;15.50;99.90;;;;;;5053263;28;19966;-71
2022/10/05 05:59:57;;;;;;;;;;;15.50;99.90;;;;;;5057018;28;19924;-71
2022/10/05 06:02:26;;;;;;;;;;;15.50;99.90;;;;;;5069946;28;19928;-70
2022/10/05 06:05:20;;;;;;;;;;;15.40;99.90;;;;;;5069081;28;20331;-72
2022/10/05 06:07:47;;;;;;;;;;;15.40;99.90;;;;;;5070163;28;19931;-69
2022/10/05 06:10:26;;;;;;;;;;;15.30;99.90;;;;;;5051310;28;20022;-72
2022/10/05 06:12:54;;;;;;;;;;;15.30;99.90;;;;;;5050006;28;19912;-71
2022/10/05 06:15:20;;;;;;;;;;;15.30;99.90;;;;;;5049574;28;19913;-72
2022/10/05 06:17:53;;;;;;;;;;;15.20;99.90;;;;;;5060364;28;20416;-77
2022/10/05 06:20:24;;;;;;;;;;;15.20;99.90;;;;;;5050937;28;19912;-75
2022/10/05 06:22:51;;;;;;;;;;;15.20;99.90;;;;;;5069689;28;20280;-75
2022/10/05 06:25:27;;;;;;;;;;;15.20;99.90;;;;;;5069857;28;20015;-72
2022/10/05 06:28:03;;;;;;;;;;;15.20;99.90;;;;;;5068228;28;20015;-69
2022/10/05 06:30:37;;;;;;;;;;;15.20;99.90;;;;;;5051032;28;19959;-72
2022/10/05 06:33:15;;;;;;;;;;;15.20;99.90;;;;;;5068774;28;19909;-72
2022/10/05 06:35:49;;;;;;;;;;;15.10;99.90;;;;;;5068315;28;19962;-74
2022/10/05 06:38:28;;;;;;;;;;;15.10;99.90;;;;;;5066934;28;19913;-73
2022/10/05 06:41:10;;;;;;;;;;;15.10;99.90;;;;;;5048784;28;19919;-72
2022/10/05 06:43:49;;;;;;;;;;;15.10;99.90;;;;;;5067920;28;19912;-71
2022/10/05 06:46:16;;;;;;;;;;;15.10;99.90;;;;;;5049877;28;19920;-73
2022/10/05 06:48:48;;;;;;;;;;;15.10;99.90;;;;;;5050083;28;19925;-74
2022/10/05 06:51:37;;;;;;;;;;;15.20;99.90;;;;;;5045545;28;19918;-73
2022/10/05 06:54:03;;;;;;;;;;;15.20;99.90;;;;;;5067552;28;19924;-75
2022/10/05 06:56:40;;;;;;;;;;;15.20;99.90;;;;;;5050709;28;19920;-73
2022/10/05 06:59:07;;;;;;;;;;;15.20;99.90;;;;;;5068814;28;19909;-72
2022/10/05 07:01:49;;;;;;;;;;;15.20;99.90;;;;;;5063834;28;19978;-78
2022/10/05 07:04:18;;;;;;;;;;;15.20;99.90;;;;;;5047763;28;19913;-76
2022/10/05 07:06:59;;;;;;;;;;;15.20;99.90;;;;;;5069907;28;20000;-74
2022/10/05 07:09:52;;;;;;;;;;;15.10;99.90;;;;;;5070212;28;20222;-72
2022/10/05 07:12:38;;;;;;;;;;;15.10;99.90;;;;;;5024794;28;19912;-71
2022/10/05 07:15:15;;;;;;;;;;;15.10;99.90;;;;;;5051927;28;19913;-74
2022/10/05 07:17:55;;;;;;;;;;;15.10;99.90;;;;;;5070687;28;19954;-71
2022/10/05 07:20:40;;;;;;;;;;;15.00;99.90;;;;;;5070061;28;19958;-71
2022/10/05 07:23:06;;;;;;;;;;;15.00;99.90;;;;;;5069158;28;19999;-72
2022/10/05 07:25:48;;;;;;;;;;;15.00;99.90;;;;;;5070595;28;19916;-74
2022/10/05 07:28:41;;;;;;;;;;;14.90;99.90;;;;;;5071077;28;20359;-79
2022/10/05 07:31:17;;;;;;;;;;;15.00;99.90;;;;;;5032074;28;20006;-77
2022/10/05 07:34:01;;;;;;;;;;;15.00;99.90;;;;;;5070808;28;20280;-76
2022/10/05 07:40:08;;;;;;;;;;;15.00;99.90;;;;;;5029393;28;19960;-77
2022/10/05 07:42:58;;;;;;;;;;;14.90;99.90;;;;;;5029194;28;20325;-77
2022/10/05 07:45:36;;;;;;;;;;;15.00;99.90;;;;;;5048468;28;19996;-75
2022/10/05 07:48:32;;;;;;;;;;;15.00;99.90;;;;;;5053383;28;19928;-75
2022/10/05 07:51:17;;;;;;;;;;;15.00;99.90;;;;;;4982476;28;20326;-73
2022/10/05 07:53:51;;;;;;;;;;;15.00;99.90;;;;;;5071715;28;19959;-76
2022/10/05 07:56:25;;;;;;;;;;;15.00;99.90;;;;;;5052628;28;19908;-77
2022/10/05 07:58:56;;;;;;;;;;;15.00;99.90;;;;;;5053292;28;20457;-75
2022/10/05 08:01:31;;;;;;;;;;;15.00;99.90;;;;;;5053382;28;20466;-73
2022/10/05 08:04:03;;;;;;;;;;;15.00;99.90;;;;;;5074077;28;19974;-73
2022/10/05 08:06:41;;;;;;;;;;;15.10;99.90;;;;;;5056958;28;19912;-71
2022/10/05 08:09:14;;;;;;;;;;;15.00;99.90;;;;;;5056240;28;19920;-78
2022/10/05 08:11:55;;;;;;;;;;;15.00;99.90;;;;;;5056785;28;19912;-70
2022/10/05 08:14:32;;;;;;;;;;;15.00;99.90;;;;;;5070967;28;19972;-74
2022/10/05 08:17:01;;;;;;;;;;;15.00;99.90;;;;;;5053193;28;19966;-76
2022/10/05 08:19:48;;;;;;;;;;;15.00;99.90;;;;;;5054273;28;19909;-70
2022/10/05 08:22:28;;;;;;;;;;;15.00;99.90;;;;;;5053736;28;19920;-77
2022/10/05 08:25:09;;;;;;;;;;;14.90;99.90;;;;;;5053535;28;19999;-73
2022/10/05 08:27:35;;;;;;;;;;;15.00;99.90;;;;;;5053423;28;19909;-76
2022/10/05 08:30:08;;;;;;;;;;;14.90;99.90;;;;;;5054622;28;19912;-72
2022/10/05 08:32:55;;;;;;;;;;;14.90;99.90;;;;;;5052840;28;20007;-74
2022/10/05 08:35:32;;;;;;;;;;;14.90;99.90;;;;;;5052397;28;19959;-74
2022/10/05 08:38:01;;;;;;;;;;;14.90;99.90;;;;;;5053237;28;19913;-72
2022/10/05 08:40:31;;;;;;;;;;;14.90;99.90;;;;;;5052558;28;19913;-72
2022/10/05 08:42:58;;;;;;;;;;;14.90;99.90;;;;;;5051655;28;19916;-78
2022/10/05 08:45:28;;;;;;;;;;;15.00;99.90;;;;;;5051165;28;20528;-72
2022/10/05 08:48:21;;;;;;;;;;;15.00;99.90;;;;;;5052610;28;19924;-74
2022/10/05 08:50:48;;;;;;;;;;;15.00;99.90;;;;;;5051013;28;19913;-73
2022/10/05 08:53:33;;;;;;;;;;;15.00;99.90;;;;;;5052772;28;19913;-70
2022/10/05 08:56:06;;;;;;;;;;;15.00;99.90;;;;;;5053665;28;19921;-72
2022/10/05 08:58:40;;;;;;;;;;;15.00;99.90;;;;;;5053027;28;19919;-70
2022/10/05 09:01:12;;;;;;;;;;;15.00;99.90;;;;;;5053757;28;20011;-71
2022/10/05 09:03:44;;;;;;;;;;;15.00;99.90;;;;;;5053766;28;19916;-71
2022/10/05 09:06:46;;;;;;;;;;;15.00;99.90;;;;;;5053759;28;20758;-71
2022/10/05 09:09:25;;;;;;;;;;;14.90;99.90;;;;;;5031633;28;20300;-75
2022/10/05 09:12:12;;;;;;;;;;;15.00;99.90;;;;;;5047567;28;19919;-72
2022/10/05 09:14:51;;;;;;;;;;;15.00;99.90;;;;;;5052830;28;20324;-70
2022/10/05 09:17:36;;;;;;;;;;;15.10;99.90;;;;;;5006008;22;19948;-71
2022/10/05 09:20:06;;;;;;;;;;;15.10;99.90;;;;;;5020258;28;20003;-74
2022/10/05 09:22:39;;;;;;;;;;;15.10;99.90;;;;;;4996458;28;19914;-72
2022/10/05 09:25:24;;;;;;;;;;;15.10;99.90;;;;;;4971410;28;19915;-76
2022/10/05 09:28:16;;;;;;;;;;;15.00;99.90;;;;;;4971203;28;19919;-73
2022/10/05 09:30:46;;;;;;;;;;;15.00;99.90;;;;;;4971268;28;20021;-73
2022/10/05 09:33:24;;;;;;;;;;;15.00;99.90;;;;;;4971240;28;19915;-77
2022/10/05 09:35:57;;;;;;;;;;;15.10;99.90;;;;;;4971731;28;20321;-74
2022/10/05 09:38:42;;;;;;;;;;;15.00;99.90;;;;;;4968827;28;19926;-73
2022/10/05 09:41:15;;;;;;;;;;;15.00;99.90;;;;;;4951882;28;19918;-73
2022/10/05 09:43:44;;;;;;;;;;;15.00;99.90;;;;;;4967203;28;19914;-75
2022/10/05 09:46:22;;;;;;;;;;;15.00;99.90;;;;;;4970739;28;19910;-75
2022/10/05 09:48:54;;;;;;;;;;;15.00;99.90;;;;;;4981708;28;19918;-72
2022/10/05 09:51:22;;;;;;;;;;;15.00;99.90;;;;;;4970039;28;19917;-73
2022/10/05 09:53:48;;;;;;;;;;;15.00;99.90;;;;;;4970525;28;19914;-76
2022/10/05 09:56:33;;;;;;;;;;;15.00;99.90;;;;;;4970819;28;19910;-78
2022/10/05 09:59:05;;;;;;;;;;;14.90;99.90;;;;;;5041413;28;19909;-76
2022/10/05 10:01:41;;;;;;;;;;;14.90;99.90;;;;;;5072051;28;19909;-78
2022/10/05 10:04:17;;;;;;;;;;;14.90;99.90;;;;;;5070324;28;19909;-76
2022/10/05 10:07:02;;;;;;;;;;;15.00;99.90;;;;;;4977808;28;20027;-76
2022/10/05 10:09:34;;;;;;;;;;;14.90;99.90;;;;;;4967819;28;19925;-76
2022/10/05 10:12:07;;;;;;;;;;;14.90;99.90;;;;;;4943694;28;19918;-75
2022/10/05 10:15:08;;;;;;;;;;;15.00;99.90;;;;;;4970444;28;20293;-78
2022/10/05 10:17:40;;;;;;;;;;;14.90;99.90;;;;;;4970095;28;19945;-79
2022/10/05 10:20:13;;;;;;;;;;;14.90;99.90;;;;;;5004650;28;19914;-76
2022/10/05 10:22:58;;;;;;;;;;;15.00;99.90;;;;;;4970121;28;19910;-78
2022/10/05 10:25:36;;;;;;;;;;;14.90;99.90;;;;;;4970464;28;19910;-78
2022/10/05 10:28:17;;;;;;;;;;;14.90;99.90;;;;;;4970719;28;19914;-78
2022/10/05 10:30:50;;;;;;;;;;;14.90;99.90;;;;;;4949829;28;20571;-77
2022/10/05 10:33:17;;;;;;;;;;;14.90;99.90;;;;;;4949306;28;19911;-78
2022/10/05 10:35:43;;;;;;;;;;;15.00;99.90;;;;;;4949203;28;19911;-76
2022/10/05 10:38:16;;;;;;;;;;;15.00;99.90;;;;;;4958172;28;19985;-77
2022/10/05 10:40:55;;;;;;;;;;;15.00;99.90;;;;;;4968398;28;19914;-77
2022/10/05 10:43:31;;;;;;;;;;;15.00;99.90;;;;;;4968222;28;20370;-77
2022/10/05 10:46:16;;;;;;;;;;;15.00;99.90;;;;;;4969666;28;19911;-76
2022/10/05 10:48:48;;;;;;;;;;;15.00;99.90;;;;;;4969893;28;19941;-76
2022/10/05 10:51:44;;;;;;;;;;;15.00;99.90;;;;;;4970055;28;20324;-77
2022/10/05 10:54:11;;;;;;;;;;;15.00;99.90;;;;;;4985173;28;19914;-76
2022/10/05 10:56:56;;;;;;;;;;;15.00;99.90;;;;;;4971246;28;19916;-77
2022/10/05 10:59:34;;;;;;;;;;;14.90;99.90;;;;;;4961880;28;19917;-77
2022/10/05 11:02:07;;;;;;;;;;;14.90;99.90;;;;;;4961476;28;19914;-76
2022/10/05 11:04:52;;;;;;;;;;;15.00;99.90;;;;;;4962466;28;19921;-76
2022/10/05 11:07:31;;;;;;;;;;;14.90;99.90;;;;;;4968806;28;20422;-76
2022/10/05 11:09:58;;;;;;;;;;;15.00;99.90;;;;;;4965809;28;19923;-78
2022/10/05 11:12:30;;;;;;;;;;;14.90;99.90;;;;;;4961240;28;20370;-77
2022/10/05 11:15:05;;;;;;;;;;;15.00;99.90;;;;;;4958283;28;19914;-78
2022/10/05 11:17:50;;;;;;;;;;;15.00;99.90;;;;;;5030756;28;19922;-77
2022/10/05 11:20:17;;;;;;;;;;;15.00;99.90;;;;;;4961438;28;19921;-77
2022/10/05 11:22:43;;;;;;;;;;;15.00;99.90;;;;;;4967396;28;19922;-78
2022/10/05 11:25:30;;;;;;;;;;;15.00;99.90;;;;;;4970179;28;19910;-77
2022/10/05 11:27:59;;;;;;;;;;;15.00;99.90;;;;;;5036501;28;19921;-80
2022/10/05 11:31:01;;;;;;;;;;;14.90;99.90;;;;;;4969500;28;20330;-79
2022/10/05 11:33:30;;;;;;;;;;;14.90;99.90;;;;;;4970150;28;19976;-78
2022/10/05 11:36:24;;;;;;;;;;;14.90;99.90;;;;;;4970316;28;19910;-78
2022/10/05 11:38:54;;;;;;;;;;;15.00;99.90;;;;;;4971726;28;19961;-79
2022/10/05 11:41:21;;;;;;;;;;;15.00;99.90;;;;;;4972974;28;20321;-80
2022/10/05 11:43:56;;;;;;;;;;;15.00;99.90;;;;;;4973274;28;19910;-76
2022/10/05 11:46:29;;;;;;;;;;;15.10;99.90;;;;;;5040111;28;19914;-79
2022/10/05 11:49:06;;;;;;;;;;;15.00;99.90;;;;;;4973286;28;19963;-78
2022/10/05 11:51:41;;;;;;;;;;;15.00;99.90;;;;;;4973241;28;19917;-79
2022/10/05 11:54:16;;;;;;;;;;;15.10;99.90;;;;;;4973095;28;20003;-79
2022/10/05 11:56:49;;;;;;;;;;;15.00;99.90;;;;;;4973206;28;20259;-80
2022/10/05 11:59:19;;;;;;;;;;;14.90;99.90;;;;;;4972853;28;19910;-81
2022/10/05 12:02:18;;;;;;;;;;;15.00;99.90;;;;;;4972635;28;19911;-79
2022/10/05 12:04:48;;;;;;;;;;;15.00;99.90;;;;;;4972901;28;19997;-78
2022/10/05 12:07:27;;;;;;;;;;;15.00;99.90;;;;;;4972973;28;19910;-79
2022/10/05 12:10:15;;;;;;;;;;;15.00;99.90;;;;;;4972916;28;19918;-78
2022/10/05 12:12:45;;;;;;;;;;;15.00;99.90;;;;;;4972676;28;20422;-78
2022/10/05 12:15:18;;;;;;;;;;;15.10;99.90;;;;;;4972541;28;19914;-77
2022/10/05 12:17:50;;;;;;;;;;;15.00;99.90;;;;;;4972289;28;19928;-81
2022/10/05 12:20:25;;;;;;;;;;;15.00;99.90;;;;;;4972147;28;19951;-78
2022/10/05 12:22:54;;;;;;;;;;;15.00;99.90;;;;;;4972214;28;20056;-78
2022/10/05 12:25:41;;;;;;;;;;;15.00;99.90;;;;;;4972783;28;19958;-77
2022/10/05 12:28:16;;;;;;;;;;;14.90;99.90;;;;;;4972315;28;19929;-77
2022/10/05 12:31:03;;;;;;;;;;;15.00;99.90;;;;;;4972254;28;19926;-76
2022/10/05 12:33:36;;;;;;;;;;;15.00;99.90;;;;;;4972775;28;19933;-75
2022/10/05 12:36:23;;;;;;;;;;;15.00;99.90;;;;;;4972629;28;19916;-75
2022/10/05 12:38:56;;;;;;;;;;;14.90;99.90;;;;;;4972944;28;19933;-75
2022/10/05 12:41:35;;;;;;;;;;;15.00;99.90;;;;;;4972504;28;19922;-75
2022/10/05 12:44:01;;;;;;;;;;;15.00;99.90;;;;;;5039512;28;19914;-75
2022/10/05 12:46:37;;;;;;;;;;;15.00;99.90;;;;;;4972109;28;20001;-76
2022/10/05 12:49:21;;;;;;;;;;;15.00;99.90;;;;;;4971420;28;20008;-75
2022/10/05 12:51:48;;;;;;;;;;;15.00;99.90;;;;;;5038405;28;20322;-77
2022/10/05 12:54:20;;;;;;;;;;;15.00;99.90;;;;;;4971793;28;19918;-76
2022/10/05 12:56:53;;;;;;;;;;;14.90;99.90;;;;;;4971987;28;19914;-75
2022/10/05 12:59:25;;;;;;;;;;;14.90;99.90;;;;;;4971884;28;19915;-75
2022/10/05 13:01:55;;;;;;;;;;;15.00;99.90;;;;;;4972069;28;19910;-76
2022/10/05 13:04:41;;;;;;;;;;;14.90;99.90;;;;;;4971742;28;19960;-75
2022/10/05 13:07:11;;;;;;;;;;;14.90;99.90;;;;;;4971840;28;19961;-75
2022/10/05 13:09:37;;;;;;;;;;;14.90;99.90;;;;;;4971877;28;19922;-78
2022/10/05 13:12:34;;;;;;;;;;;14.90;99.90;;;;;;4972291;28;20294;-77
2022/10/05 13:15:24;;;;;;;;;;;14.80;99.90;;;;;;4987676;28;19940;-78
2022/10/05 13:18:06;;;;;;;;;;;14.90;99.90;;;;;;4971809;28;19972;-76
2022/10/05 13:20:36;;;;;;;;;;;14.90;99.90;;;;;;4971819;28;19914;-77
2022/10/05 13:23:38;;;;;;;;;;;14.90;99.90;;;;;;4971725;28;19910;-76
2022/10/05 13:26:16;;;;;;;;;;;14.90;99.90;;;;;;4949948;28;20622;-78
2022/10/05 13:28:55;;;;;;;;;;;14.90;99.90;;;;;;4968712;28;19997;-78
2022/10/05 13:31:35;;;;;;;;;;;14.90;99.90;;;;;;4971194;28;19918;-78
2022/10/05 13:34:07;;;;;;;;;;;14.90;99.90;;;;;;4971758;28;19918;-77
2022/10/05 13:36:40;;;;;;;;;;;14.90;99.90;;;;;;4971603;28;20001;-78
2022/10/05 13:39:12;;;;;;;;;;;14.90;99.90;;;;;;4971563;28;19933;-77
2022/10/05 13:42:00;;;;;;;;;;;14.90;99.90;;;;;;4970994;28;19950;-79
2022/10/05 13:44:57;;;;;;;;;;;15.00;99.90;;;;;;4971161;28;19917;-78
2022/10/05 13:47:39;;;;;;;;;;;15.00;99.90;;;;;;4970931;28;19997;-77
2022/10/05 13:50:21;;;;;;;;;;;15.00;99.90;;;;;;4971147;28;20001;-77
2022/10/05 13:53:06;;;;;;;;;;;15.00;99.90;;;;;;4953745;28;19965;-77
2022/10/05 13:55:45;;;;;;;;;;;15.00;99.90;;;;;;4970933;28;19918;-76
2022/10/05 13:58:18;;;;;;;;;;;14.90;99.90;;;;;;4971206;28;19914;-75
2022/10/05 14:00:54;;;;;;;;;;;14.90;99.90;;;;;;4970827;28;19964;-76
2022/10/05 14:03:26;;;;;;;;;;;14.90;99.90;;;;;;4970590;28;19937;-76
2022/10/05 14:05:55;;;;;;;;;;;15.00;99.90;;;;;;4970241;28;20366;-76
2022/10/05 14:08:24;;;;;;;;;;;14.90;99.90;;;;;;4970882;28;19918;-77
2022/10/05 14:10:53;;;;;;;;;;;15.00;99.90;;;;;;4971300;28;20016;-76
2022/10/05 14:13:29;;;;;;;;;;;14.90;99.90;;;;;;4971206;28;19955;-76
2022/10/05 14:16:04;;;;;;;;;;;15.00;99.90;;;;;;4970634;28;19921;-77
2022/10/05 14:18:32;;;;;;;;;;;15.00;99.90;;;;;;4970652;28;19972;-77
2022/10/05 14:21:02;;;;;;;;;;;15.00;99.90;;;;;;4970772;28;20436;-76
2022/10/05 14:23:29;;;;;;;;;;;15.00;99.90;;;;;;4970605;28;20001;-76
2022/10/05 14:25:56;;;;;;;;;;;15.00;99.90;;;;;;4970450;28;19921;-77
2022/10/05 14:28:28;;;;;;;;;;;15.00;99.90;;;;;;4970610;28;19918;-76
2022/10/05 14:30:57;;;;;;;;;;;15.00;99.90;;;;;;4970117;28;19918;-76
2022/10/05 14:33:25;;;;;;;;;;;15.00;99.90;;;;;;5036845;28;19914;-77
2022/10/05 14:35:53;;;;;;;;;;;15.00;99.90;;;;;;4970839;28;20318;-77
2022/10/05 14:38:28;;;;;;;;;;;15.00;99.90;;;;;;4970784;28;19950;-77
2022/10/05 14:41:13;;;;;;;;;;;14.90;99.90;;;;;;4970324;28;19910;-76
2022/10/05 14:43:48;;;;;;;;;;;14.90;99.90;;;;;;4970603;28;20317;-76
2022/10/05 14:46:14;;;;;;;;;;;14.90;99.90;;;;;;4970414;28;19914;-76
2022/10/05 14:48:42;;;;;;;;;;;14.90;99.90;;;;;;4970560;28;20128;-76
2022/10/05 14:51:10;;;;;;;;;;;14.80;99.90;;;;;;4970705;28;19963;-75
2022/10/05 14:53:42;;;;;;;;;;;14.90;99.90;;;;;;4970442;28;19914;-77
2022/10/05 14:56:17;;;;;;;;;;;14.80;99.90;;;;;;4970181;28;19910;-78
2022/10/05 14:58:55;;;;;;;;;;;14.80;99.90;;;;;;4970403;28;20328;-75
2022/10/05 15:01:35;;;;;;;;;;;14.70;99.90;;;;;;4970257;28;19923;-78
2022/10/05 15:04:20;;;;;;;;;;;14.60;99.90;;;;;;4970396;28;19914;-77
2022/10/05 15:07:05;;;;;;;;;;;14.60;99.90;;;;;;4970354;28;19972;-80
2022/10/05 15:09:41;;;;;;;;;;;14.60;99.90;;;;;;4970710;28;19922;-80
2022/10/05 15:12:08;;;;;;;;;;;14.60;99.90;;;;;;4969740;28;20368;-82